createdAt,value
2018-12-04T00:02:02.079Z,5.07
2018-12-04T00:04:35.444Z,3.63
2018-12-04T00:07:12.417Z,9.23
2018-12-04T00:15:15.439Z,3.43
2018-12-04T00:17:49.700Z,5.93
2018-12-04T00:20:31.650Z,3.93
2018-12-04T00:23:14.340Z,5.77
2018-12-04T00:28:33.823Z,4.90
2018-12-04T00:31:10.655Z,3.10
2018-12-04T00:33:43.749Z,3.20
2018-12-04T00:36:14.224Z,2.30
2018-12-04T00:38:54.174Z,3.10
2018-12-04T00:41:27.707Z,4.30
2018-12-04T00:43:58.699Z,3.37
2018-12-04T00:46:29.682Z,4.93
2018-12-04T00:49:04.166Z,2.40
2018-12-04T00:51:35.039Z,5.17
2018-12-04T00:54:04.333Z,3.50
2018-12-04T00:56:35.546Z,2.93
2018-12-04T00:59:08.876Z,4.43
2018-12-04T01:01:48.596Z,2.30
2018-12-04T01:04:19.896Z,2.90
2018-12-04T01:06:53.696Z,2.57
2018-12-04T01:09:27.172Z,4.33
2018-12-04T01:12:06.347Z,1.70
2018-12-04T01:14:41.512Z,3.10
2018-12-04T01:17:15.044Z,4.30
2018-12-04T01:19:54.382Z,3.17
2018-12-04T01:22:28.356Z,3.23
2018-12-04T01:25:08.315Z,4.63
2018-12-04T01:27:41.146Z,5.30
2018-12-04T01:30:13.230Z,4.70
2018-12-04T01:35:29.685Z,3.10
2018-12-04T01:38:00.626Z,1.87
2018-12-04T01:40:31.566Z,1.37
2018-12-04T01:45:57.156Z,2.47
2018-12-04T01:51:19.427Z,2.73
2018-12-04T01:56:39.890Z,4.53
2018-12-04T02:01:58.623Z,3.70
2018-12-04T02:04:37.927Z,6.63
2018-12-04T02:07:14.137Z,3.33
2018-12-04T02:09:48.058Z,4.20
2018-12-04T02:15:13.731Z,4.60
2018-12-04T02:17:44.905Z,3.50
2018-12-04T02:23:06.302Z,2.57
2018-12-04T02:25:45.927Z,4.17
2018-12-04T02:28:27.331Z,4.83
2018-12-04T02:36:45.906Z,5.10
2018-12-04T02:39:18.638Z,6.90
2018-12-04T02:41:58.682Z,4.43
2018-12-04T02:47:18.128Z,3.13
2018-12-04T02:52:47.277Z,7.20
2018-12-04T02:55:26.474Z,5.80
2018-12-04T02:57:58.144Z,5.30
2018-12-04T03:00:37.544Z,4.53
2018-12-04T03:03:18.439Z,7.03
2018-12-04T03:05:58.410Z,4.63
2018-12-04T03:08:33.333Z,3.10
2018-12-04T03:11:11.466Z,9.00
2018-12-04T03:16:38.370Z,4.37
2018-12-04T03:19:19.891Z,2.90
2018-12-04T03:21:57.650Z,5.70
2018-12-04T03:24:31.287Z,6.80
2018-12-04T03:35:30.497Z,5.23
2018-12-04T03:38:01.900Z,4.00
2018-12-04T03:49:04.697Z,3.70
2018-12-04T03:54:31.230Z,5.17
2018-12-04T03:57:11.002Z,7.57
2018-12-04T04:05:28.165Z,3.67
2018-12-04T04:07:59.260Z,5.97
2018-12-04T04:10:37.081Z,8.90
2018-12-04T04:13:04.474Z,3.03
2018-12-04T04:18:15.636Z,5.20
2018-12-04T04:20:55.590Z,4.80
2018-12-04T04:23:31.429Z,3.43
2018-12-04T04:29:04.152Z,4.60
2018-12-04T04:34:24.359Z,4.43
2018-12-04T04:36:55.397Z,3.63
2018-12-04T04:39:28.588Z,6.57
2018-12-04T04:45:01.541Z,6.10
2018-12-04T04:47:31.160Z,7.13
2018-12-04T04:50:12.607Z,6.17
2018-12-04T04:52:43.557Z,5.67
2018-12-04T04:55:23.186Z,6.70
2018-12-04T04:57:54.537Z,4.97
2018-12-04T05:00:30.570Z,5.07
2018-12-04T05:03:10.477Z,3.03
2018-12-04T05:05:48.030Z,6.07
2018-12-04T05:08:18.824Z,4.17
2018-12-04T05:10:58.554Z,4.60
2018-12-04T05:13:36.080Z,1.80
2018-12-04T05:16:16.247Z,1.63
2018-12-04T05:18:55.950Z,3.50
2018-12-04T05:21:35.828Z,1.80
2018-12-04T05:24:13.597Z,2.90
2018-12-04T05:32:23.302Z,3.97
2018-12-04T05:35:06.856Z,5.03
2018-12-04T05:37:37.689Z,5.63
2018-12-04T05:45:52.934Z,2.57
2018-12-04T05:48:26.885Z,3.43
2018-12-04T05:51:03.174Z,3.43
2018-12-04T05:53:45.243Z,3.13
2018-12-04T05:56:16.921Z,4.73
2018-12-04T05:58:48.126Z,3.70
2018-12-04T06:01:20.203Z,6.23
2018-12-04T06:06:43.865Z,2.67
2018-12-04T06:09:17.228Z,2.57
2018-12-04T06:11:51.151Z,3.70
2018-12-04T06:20:22.499Z,3.80
2018-12-04T06:25:55.473Z,4.37
2018-12-04T06:28:34.814Z,1.30
2018-12-04T06:31:14.044Z,1.00
2018-12-04T06:42:09.559Z,1.57
2018-12-04T07:25:29.886Z,2.73
2018-12-04T07:34:02.165Z,1.47
2018-12-04T08:05:45.364Z,3.50
2018-12-04T08:08:16.547Z,2.60
2018-12-04T08:10:51.596Z,2.80
2018-12-04T08:13:27.672Z,3.60
2018-12-04T08:21:57.547Z,3.43
2018-12-04T08:27:29.770Z,5.00
2018-12-04T08:33:09.933Z,1.87
2018-12-04T08:38:45.006Z,2.83
2018-12-04T08:41:19.448Z,2.60
2018-12-04T08:49:34.898Z,3.33
2018-12-04T08:58:06.962Z,4.53
2018-12-04T09:00:40.892Z,3.13
2018-12-04T09:03:21.131Z,2.90
2018-12-04T09:05:58.519Z,3.47
2018-12-04T09:08:38.258Z,2.00
2018-12-04T09:14:08.833Z,2.57
2018-12-04T09:16:49.437Z,3.33
2018-12-04T09:22:07.159Z,4.70
2018-12-04T09:27:31.673Z,3.93
2018-12-04T09:30:09.469Z,2.80
2018-12-04T09:35:49.610Z,3.83
2018-12-04T09:41:27.718Z,3.07
2018-12-04T09:46:53.455Z,3.50
2018-12-04T09:49:29.085Z,3.37
2018-12-04T09:52:11.664Z,2.83
2018-12-04T09:54:43.148Z,5.07
2018-12-04T09:57:14.113Z,3.17
2018-12-04T09:59:51.705Z,3.70
2018-12-04T10:02:24.512Z,3.10
2018-12-04T10:05:01.595Z,6.00
2018-12-04T10:07:34.141Z,4.07
2018-12-04T10:10:13.592Z,2.80
2018-12-04T10:12:53.269Z,3.63
2018-12-04T10:15:32.608Z,3.00
2018-12-04T10:18:09.564Z,2.60
2018-12-04T10:20:42.175Z,3.73
2018-12-04T10:28:53.751Z,4.27
2018-12-04T10:31:33.383Z,3.50
2018-12-04T10:34:13.497Z,2.70
2018-12-04T10:36:44.630Z,3.37
2018-12-04T10:39:24.745Z,2.80
2018-12-04T10:42:06.210Z,3.10
2018-12-04T10:47:38.769Z,4.77
2018-12-04T10:50:18.990Z,3.53
2018-12-04T10:52:58.790Z,3.50
2018-12-04T10:55:42.291Z,4.30
2018-12-04T11:01:05.794Z,3.53
2018-12-04T11:03:42.962Z,4.80
2018-12-04T11:09:09.407Z,4.00
2018-12-04T11:11:41.032Z,3.30
2018-12-04T11:17:13.057Z,5.53
2018-12-04T11:19:53.010Z,9.60
2018-12-04T11:22:24.586Z,3.90
2018-12-04T11:24:53.483Z,4.03
2018-12-04T11:27:29.919Z,4.10
2018-12-04T11:30:09.564Z,3.77
2018-12-04T11:32:45.629Z,4.20
2018-12-04T11:41:06.735Z,3.73
2018-12-04T11:46:24.652Z,3.60
2018-12-04T11:52:04.333Z,4.07
2018-12-04T11:57:39.018Z,5.03
2018-12-04T12:03:19.186Z,3.43
2018-12-04T12:08:34.286Z,5.13
2018-12-04T12:11:12.568Z,6.57
2018-12-04T12:16:46.836Z,5.07
2018-12-04T12:22:12.796Z,5.30
2018-12-04T12:30:36.273Z,4.60
2018-12-04T12:36:05.769Z,4.30
2018-12-04T12:44:36.707Z,4.23
2018-12-04T12:53:15.328Z,4.37
2018-12-04T12:55:55.754Z,4.67
2018-12-04T13:04:16.933Z,2.77
2018-12-04T13:06:51.822Z,3.53
2018-12-04T13:15:05.390Z,1.43
2018-12-04T13:17:40.909Z,2.37
2018-12-04T13:26:02.918Z,3.00
2018-12-04T13:31:37.999Z,1.83
2018-12-04T13:34:17.958Z,2.60
2018-12-04T13:36:49.369Z,1.60
2018-12-04T13:39:26.743Z,1.53
2018-12-04T13:47:42.782Z,1.80
2018-12-04T13:53:16.698Z,3.47
2018-12-04T13:55:56.276Z,3.07
2018-12-04T13:58:27.349Z,2.30
2018-12-04T14:00:58.887Z,2.33
2018-12-04T14:09:11.182Z,2.53
2018-12-04T14:14:44.098Z,4.47
2018-12-04T14:17:24.059Z,2.40
2018-12-04T14:20:03.950Z,5.20
2018-12-04T14:22:43.991Z,2.90
2018-12-04T14:25:11.404Z,2.77
2018-12-04T14:27:49.348Z,2.90
2018-12-04T14:30:28.436Z,3.93
2018-12-04T14:33:08.687Z,3.30
2018-12-04T14:35:48.385Z,2.80
2018-12-04T14:38:24.659Z,3.87
2018-12-04T14:40:53.870Z,3.00
2018-12-04T14:43:21.298Z,2.80
2018-12-04T14:45:58.423Z,3.37
2018-12-04T14:48:29.593Z,4.30
2018-12-04T14:53:50.982Z,3.20
2018-12-04T14:56:33.982Z,4.60
2018-12-04T14:59:01.485Z,5.00
2018-12-04T15:01:32.926Z,3.80
2018-12-04T15:04:10.185Z,3.70
2018-12-04T15:06:41.701Z,2.30
2018-12-04T15:09:18.932Z,2.70
2018-12-04T15:14:51.152Z,3.00
2018-12-04T15:17:29.082Z,2.40
2018-12-04T15:19:56.599Z,3.00
2018-12-04T15:22:36.449Z,8.23
2018-12-04T15:25:12.410Z,3.13
2018-12-04T15:27:44.049Z,4.17
2018-12-04T15:33:15.488Z,4.53
2018-12-04T15:35:51.540Z,6.57
2018-12-04T15:38:22.629Z,4.37
2018-12-04T15:41:02.225Z,4.13
2018-12-04T15:43:37.829Z,3.00
2018-12-04T15:46:11.735Z,3.00
2018-12-04T15:54:36.255Z,3.60
2018-12-04T15:57:07.372Z,2.60
2018-12-04T16:02:30.321Z,3.10
2018-12-04T16:05:09.713Z,2.43
2018-12-04T16:07:49.276Z,3.10
2018-12-04T16:10:26.967Z,4.27
2018-12-04T16:18:33.346Z,4.13
2018-12-04T16:21:13.258Z,5.47
2018-12-04T16:23:42.833Z,3.80
2018-12-04T16:26:19.863Z,7.80
2018-12-04T16:28:51.757Z,10.83
2018-12-04T16:31:22.613Z,6.80
2018-12-04T16:34:00.090Z,5.40
2018-12-04T16:36:37.942Z,4.47
2018-12-04T16:39:10.031Z,5.03
2018-12-04T16:41:50.511Z,4.70
2018-12-04T16:44:23.712Z,6.00
2018-12-04T16:46:57.618Z,4.17
2018-12-04T16:49:34.674Z,5.77
2018-12-04T16:52:14.987Z,7.63
2018-12-04T16:54:54.555Z,7.07
2018-12-04T16:57:25.454Z,5.70
2018-12-04T16:59:56.663Z,5.93
2018-12-04T17:02:36.216Z,6.97
2018-12-04T17:05:13.888Z,6.57
2018-12-04T17:07:44.822Z,5.67
2018-12-04T17:10:24.645Z,9.10
2018-12-04T17:12:55.837Z,5.67
2018-12-04T17:15:27.241Z,7.60
2018-12-04T17:17:54.682Z,5.13
2018-12-04T17:20:31.931Z,8.00
2018-12-04T17:25:59.617Z,5.13
2018-12-04T17:28:33.634Z,5.90
2018-12-04T17:31:04.615Z,6.80
2018-12-04T17:33:38.315Z,7.63
2018-12-04T17:36:13.847Z,6.60
2018-12-04T17:41:31.245Z,7.10
2018-12-04T17:44:09.012Z,8.57
2018-12-04T17:46:42.528Z,7.33
2018-12-04T17:49:22.028Z,7.73
2018-12-04T17:54:57.232Z,5.40
2018-12-04T18:03:10.600Z,7.20
2018-12-04T18:05:44.408Z,6.80
2018-12-04T18:08:17.344Z,6.33
2018-12-04T18:10:50.951Z,6.60
2018-12-04T18:13:25.004Z,6.40
2018-12-04T18:15:52.739Z,6.73
2018-12-04T18:24:02.445Z,8.43
2018-12-04T18:26:39.781Z,4.87
2018-12-04T18:29:19.873Z,6.60
2018-12-04T18:31:51.265Z,6.03
2018-12-04T18:34:31.213Z,6.20
2018-12-04T19:18:16.196Z,8.63
2018-12-04T19:20:47.630Z,7.50
2018-12-04T19:23:18.519Z,7.50
2018-12-04T19:25:57.565Z,7.80
2018-12-04T19:28:33.083Z,6.40
2018-12-04T19:31:08.104Z,7.73
2018-12-04T19:33:39.495Z,6.90
2018-12-04T19:36:15.062Z,9.13
2018-12-04T19:41:37.732Z,9.30
2018-12-04T19:44:13.873Z,7.00
2018-12-04T19:46:57.844Z,10.77
2018-12-04T19:52:37.298Z,11.50
2018-12-04T19:57:59.560Z,9.63
2018-12-04T20:00:34.829Z,8.47
2018-12-04T20:03:04.241Z,9.97
2018-12-04T20:05:37.293Z,9.80
2018-12-04T20:10:53.883Z,14.17
2018-12-04T20:13:26.455Z,15.13
2018-12-04T20:15:57.880Z,15.37
2018-12-04T20:18:33.116Z,13.53
2018-12-04T20:21:00.439Z,14.37
2018-12-04T20:23:28.043Z,14.70
2018-12-04T20:25:55.715Z,12.23
2018-12-04T20:28:23.097Z,11.77
2018-12-04T20:30:50.460Z,14.27
2018-12-04T20:33:17.868Z,13.43
2018-12-04T20:35:45.247Z,14.10
2018-12-04T20:38:12.607Z,12.80
2018-12-04T20:40:39.971Z,14.53
2018-12-04T20:43:07.374Z,13.80
2018-12-04T20:45:34.687Z,12.93
2018-12-04T20:48:02.678Z,14.50
2018-12-04T20:50:30.087Z,16.17
2018-12-04T20:52:57.452Z,13.40
2018-12-04T20:55:24.952Z,12.73
2018-12-04T20:57:52.435Z,13.70
2018-12-04T21:00:19.854Z,15.83
2018-12-04T21:02:47.525Z,13.80
2018-12-04T21:05:15.065Z,15.83
2018-12-04T21:07:42.453Z,13.03
2018-12-04T21:10:10.122Z,13.57
2018-12-04T21:12:37.533Z,13.90
2018-12-04T21:15:05.874Z,13.87
2018-12-04T21:17:33.231Z,13.20
2018-12-04T21:20:00.583Z,12.40
2018-12-04T21:22:27.945Z,13.00
2018-12-04T21:24:55.433Z,12.80
2018-12-04T21:28:26.434Z,14.00
2018-12-04T21:30:59.227Z,13.20
2018-12-04T21:33:32.060Z,11.67
2018-12-04T21:36:05.059Z,16.67
2018-12-04T21:38:37.708Z,13.07
2018-12-04T21:41:10.249Z,13.23
2018-12-04T21:43:43.171Z,15.10
2018-12-04T21:46:15.963Z,13.93
2018-12-04T21:48:43.468Z,12.60
2018-12-04T21:51:10.810Z,13.07
2018-12-04T21:53:38.164Z,14.67
2018-12-04T21:56:05.575Z,15.80
2018-12-04T21:58:32.927Z,11.43
2018-12-04T22:01:00.309Z,13.27
2018-12-04T22:03:27.729Z,14.33
2018-12-04T22:05:55.018Z,13.57
2018-12-04T22:08:22.305Z,17.10
2018-12-04T22:10:49.647Z,16.77
2018-12-04T22:13:16.959Z,14.33
2018-12-04T22:15:44.244Z,13.77
2018-12-04T22:18:11.875Z,15.80
2018-12-04T22:20:39.363Z,16.40
2018-12-04T22:23:08.716Z,14.57
2018-12-04T22:25:36.143Z,15.27
2018-12-04T22:28:03.614Z,13.90
2018-12-04T22:30:30.965Z,11.20
2018-12-04T22:32:58.392Z,12.23
2018-12-04T22:35:25.677Z,13.50
2018-12-04T22:37:53.012Z,14.30
2018-12-04T22:40:20.548Z,11.70
2018-12-04T22:42:47.841Z,12.37
2018-12-04T22:48:07.267Z,13.50
2018-12-04T22:50:34.603Z,12.23
2018-12-04T22:53:02.071Z,11.33
2018-12-04T22:55:29.622Z,10.37
2018-12-04T22:57:56.963Z,13.13
2018-12-04T23:00:38.762Z,11.67
2018-12-04T23:03:06.190Z,15.83
2018-12-04T23:05:33.582Z,14.80
2018-12-04T23:08:00.935Z,11.53
2018-12-04T23:10:29.023Z,10.03
2018-12-04T23:12:57.518Z,11.73
2018-12-04T23:15:24.999Z,12.33
2018-12-04T23:17:52.456Z,12.50
2018-12-04T23:23:08.871Z,12.93
2018-12-04T23:25:36.197Z,15.80
2018-12-04T23:28:03.543Z,12.23
2018-12-04T23:30:31.191Z,16.40
2018-12-04T23:32:58.493Z,12.10
2018-12-04T23:35:25.816Z,12.03
2018-12-04T23:37:53.106Z,12.30
2018-12-04T23:40:20.424Z,12.50
2018-12-04T23:42:47.766Z,12.37
2018-12-04T23:45:15.065Z,11.47
2018-12-04T23:47:42.396Z,12.90
2018-12-04T23:50:09.761Z,17.73
2018-12-04T23:52:38.283Z,11.93
2018-12-04T23:55:06.133Z,13.07
2018-12-04T23:57:33.576Z,11.97
